»·PEaware :: WAT234 KRNO-KSLC

WAT234 :: KRNO-KSLC

FLIGHT INFORMATION

Flight Status: Arrived
Operator:
Walker Air Transport
More flights by this operator :: More flights under this callsign
Pilot: Eduardo Elias G. (24838)
Aircraft: BOEING 737-800
(B738)
More flights by this aircraft type
Origin: KRNO Reno/Tahoe Intl
United States
Destination: KSLC Salt Lake City Intl
United States
More flights between these airports :: More routes between these airports
Route: ZEFFR6 BLKJK LLC BAM J154 BVL WAATS5
File this flight plan on PilotEdge
Remarks:
Altitude:
(Current/Filed)
37,000ft
Speed:
(Current/Filed)
475kts
Departed: 14-Sep-20 01:02 PM
Arrived: 14-Sep-20 02:09 PM
Distance/Time
Traveled:
365nm/1:07
Distance/Time
To Go:
Arrived

Flight Plot

Page will automatically refresh every two minutes.

Flight plan parsing failed; only flown route is shown


Map Options




Map Legend


Flown Route
Filed Route
Departure Airport
Arrival Airport
Navaid (VOR, NDB)
Fix

Horizontal Profiles

Position Reports

Time Latitude Longitude Heading Altitude Ground
Speed
14-Sep-20 12:29 39.504500 -119.772795 354 4423ft 0kts
14-Sep-20 12:30 39.504500 -119.772795 354 4423ft 0kts
14-Sep-20 12:31 39.504500 -119.772795 354 4423ft 0kts
14-Sep-20 12:32 39.504500 -119.772795 354 4423ft 0kts
14-Sep-20 12:33 39.504500 -119.772795 354 4423ft 0kts
14-Sep-20 12:34 39.504500 -119.772795 354 4423ft 0kts
14-Sep-20 12:35 39.504500 -119.772795 354 4423ft 0kts
14-Sep-20 12:36 39.504500 -119.772795 354 4423ft 0kts
14-Sep-20 12:37 39.504500 -119.772795 354 4423ft 0kts
14-Sep-20 12:38 39.504500 -119.772795 354 4423ft 0kts
14-Sep-20 12:39 39.504500 -119.772795 354 4423ft 0kts
14-Sep-20 12:40 39.504500 -119.772795 354 4423ft 0kts
14-Sep-20 12:41 39.504500 -119.772795 354 4423ft 0kts
14-Sep-20 12:42 39.504500 -119.772795 354 4423ft 0kts
14-Sep-20 12:43 39.504500 -119.772795 354 4423ft 0kts
14-Sep-20 12:44 39.504500 -119.772795 354 4423ft 0kts
14-Sep-20 12:45 39.504500 -119.772795 354 4423ft 0kts
14-Sep-20 12:46 39.504500 -119.772795 354 4423ft 0kts
14-Sep-20 12:47 39.504500 -119.772795 354 4423ft 0kts
14-Sep-20 12:48 39.503993 -119.772808 15 4423ft 2kts
14-Sep-20 12:49 39.503716 -119.773339 90 4423ft 0kts
14-Sep-20 12:50 39.503716 -119.773339 90 4423ft 0kts
14-Sep-20 12:51 39.503716 -119.773337 90 4423ft 0kts
14-Sep-20 12:52 39.503716 -119.773335 90 4423ft 0kts
14-Sep-20 12:53 39.503815 -119.771658 50 4423ft 9kts
14-Sep-20 12:54 39.506280 -119.771485 359 4423ft 8kts
14-Sep-20 12:55 39.508564 -119.771489 359 4423ft 9kts
14-Sep-20 12:56 39.511608 -119.771491 0 4423ft 12kts
14-Sep-20 12:57 39.513734 -119.769809 92 4423ft 11kts
14-Sep-20 12:58 39.513728 -119.767978 89 4423ft 0kts
14-Sep-20 12:59 39.513728 -119.767976 89 4423ft 0kts
14-Sep-20 13:00 39.513428 -119.766752 173 4423ft 10kts
14-Sep-20 13:01 39.485710 -119.766896 180 4649ft 180kts
14-Sep-20 13:02 39.432704 -119.769489 176 6771ft 215kts
14-Sep-20 13:03 39.362372 -119.766979 180 8398ft 281kts
14-Sep-20 13:04 39.296353 -119.736784 122 11710ft 294kts
14-Sep-20 13:05 39.285185 -119.628270 73 14589ft 331kts
14-Sep-20 13:06 39.347363 -119.524716 55 16175ft 387kts
14-Sep-20 13:07 39.424291 -119.424106 42 18685ft 400kts
14-Sep-20 13:08 39.506783 -119.324820 43 20905ft 412kts
14-Sep-20 13:09 39.592283 -119.222555 42 22922ft 423kts
14-Sep-20 13:10 39.679626 -119.117511 42 24751ft 433kts
14-Sep-20 13:11 39.768710 -119.010286 41 26480ft 442kts
14-Sep-20 13:12 39.859848 -118.900706 42 28039ft 450kts
14-Sep-20 13:13 39.952465 -118.788897 42 29469ft 457kts
14-Sep-20 13:14 40.046314 -118.674338 41 30738ft 464kts
14-Sep-20 13:15 40.130114 -118.548264 61 32436ft 461kts
14-Sep-20 13:16 40.176124 -118.392523 68 34045ft 455kts
14-Sep-20 13:17 40.218439 -118.236315 68 35295ft 455kts
14-Sep-20 13:18 40.261063 -118.080854 68 36410ft 455kts
14-Sep-20 13:19 40.303701 -117.924488 68 37202ft 459kts
14-Sep-20 13:20 40.346968 -117.763843 68 37211ft 474kts
14-Sep-20 13:21 40.390663 -117.600429 69 37219ft 474kts
14-Sep-20 13:22 40.434215 -117.436460 69 37223ft 475kts
14-Sep-20 13:23 40.477792 -117.272548 69 37226ft 476kts
14-Sep-20 13:24 40.520926 -117.107638 69 37221ft 478kts
14-Sep-20 13:25 40.562764 -116.941849 74 37220ft 479kts
14-Sep-20 13:26 40.578964 -116.767544 85 37220ft 482kts
14-Sep-20 13:27 40.589025 -116.591534 85 37226ft 482kts
14-Sep-20 13:28 40.599636 -116.415150 84 37236ft 483kts
14-Sep-20 13:29 40.610343 -116.239309 85 37250ft 483kts
14-Sep-20 13:30 40.620484 -116.062135 85 37261ft 484kts
14-Sep-20 13:31 40.630287 -115.885347 85 37266ft 486kts
14-Sep-20 13:32 40.639826 -115.708248 86 37273ft 485kts
14-Sep-20 13:33 40.649130 -115.530436 86 37275ft 485kts
14-Sep-20 13:34 40.658146 -115.352912 86 37160ft 485kts
14-Sep-20 13:35 40.667029 -115.179660 86 36159ft 465kts
14-Sep-20 13:36 40.674782 -115.011920 86 35159ft 454kts
14-Sep-20 13:37 40.682223 -114.847211 87 34156ft 445kts
14-Sep-20 13:38 40.689075 -114.685546 87 33153ft 437kts
14-Sep-20 13:40 40.695561 -114.527057 87 32153ft 430kts
14-Sep-20 13:41 40.702440 -114.371026 87 31152ft 423kts
14-Sep-20 13:42 40.708750 -114.217566 87 30151ft 415kts
14-Sep-20 13:43 40.715016 -114.066527 87 29148ft 409kts
14-Sep-20 13:44 40.720350 -113.918290 88 28147ft 401kts
14-Sep-20 13:45 40.725453 -113.772787 88 27147ft 394kts
14-Sep-20 13:46 40.726119 -113.630123 91 25889ft 383kts
14-Sep-20 13:47 40.725394 -113.491319 91 24323ft 374kts
14-Sep-20 13:48 40.724787 -113.355843 91 22770ft 366kts
14-Sep-20 13:49 40.725035 -113.222853 91 21232ft 358kts
14-Sep-20 13:50 40.724444 -113.093242 92 19726ft 350kts
14-Sep-20 13:51 40.723454 -112.965257 92 18221ft 345kts
14-Sep-20 13:52 40.722503 -112.840791 91 17063ft 334kts
14-Sep-20 13:53 40.721634 -112.719548 92 15854ft 323kts
14-Sep-20 13:54 40.720368 -112.601772 92 14875ft 320kts
14-Sep-20 13:55 40.718577 -112.485041 93 13907ft 316kts
14-Sep-20 13:56 40.715145 -112.377298 93 13012ft 313kts
14-Sep-20 13:57 40.711522 -112.263122 94 12072ft 310kts
14-Sep-20 13:57 40.714792 -112.169234 80 12002ft 313kts
14-Sep-20 13:58 40.774145 -112.095382 10 11992ft 292kts
14-Sep-20 13:59 40.852872 -112.103708 351 12006ft 281kts
14-Sep-20 14:01 40.940418 -112.113670 354 11327ft 271kts
14-Sep-20 14:01 41.004256 -112.119185 355 10046ft 282kts
14-Sep-20 14:02 41.053845 -112.053937 97 8153ft 282kts
14-Sep-20 14:03 41.005689 -111.985678 166 7039ft 241kts
14-Sep-20 14:04 40.944416 -111.993298 175 6865ft 207kts
14-Sep-20 14:05 40.890081 -111.986469 175 5854ft 178kts
14-Sep-20 14:06 40.845007 -111.981075 175 4961ft 156kts
14-Sep-20 14:07 40.803615 -111.976414 174 4235ft 114kts
14-Sep-20 14:08 40.793206 -111.975246 176 4235ft 22kts
14-Sep-20 14:09 40.792117 -111.977742 266 4235ft 6kts
14-Sep-20 14:10 40.790340 -111.978950 182 4235ft 7kts
14-Sep-20 14:11 40.789582 -111.981738 163 4235ft 6kts

Navigation Log

Ident Type
Flight plan parsing failed, navigation log unavailable